Time;durP1;ratioP1;P1;durP2;ratioP2;P2;SDS_P1;SDS_P2;PMS_P1;PMS_P2;Temp;Humidity;BMP_temperature;BMP_pressure;BME280_temperature;BME280_humidity;BME280_pressure;Samples;Min_cycle;Max_cycle;Signal;HPM_P1;HPM_P2
2024/02/02 00:02:09;;;;;;;10.30;3.90;;;;;;;;;;5073197;28;20523;-76
2024/02/02 00:04:35;;;;;;;19.77;4.90;;;;;;;;;;5073247;28;20423;-79
2024/02/02 00:07:01;;;;;;;20.30;5.70;;;;;;;;;;5074841;28;20421;-82
2024/02/02 00:09:27;;;;;;;12.10;4.57;;;;;;;;;;5079867;28;20410;-78
2024/02/02 00:11:53;;;;;;;15.03;3.93;;;;;;;;;;5079558;28;20520;-80
2024/02/02 00:14:19;;;;;;;21.20;4.87;;;;;;;;;;5079272;28;20412;-85
2024/02/02 00:16:45;;;;;;;16.27;4.40;;;;;;;;;;5079683;28;20423;-80
2024/02/02 00:19:11;;;;;;;13.67;3.63;;;;;;;;;;5079509;28;20469;-81
2024/02/02 00:21:37;;;;;;;20.87;4.60;;;;;;;;;;5079404;28;20429;-76
2024/02/02 00:24:03;;;;;;;8.57;3.60;;;;;;;;;;5079446;28;20481;-78
2024/02/02 00:26:29;;;;;;;16.97;4.00;;;;;;;;;;5079913;28;20927;-76
2024/02/02 00:28:55;;;;;;;13.13;4.30;;;;;;;;;;5079564;28;20416;-76
2024/02/02 00:31:22;;;;;;;15.40;3.90;;;;;;;;;;5061150;28;20419;-84
2024/02/02 00:33:50;;;;;;;14.63;3.60;;;;;;;;;;5079488;28;20413;-78
2024/02/02 00:36:16;;;;;;;18.90;3.83;;;;;;;;;;5079563;28;20427;-77
2024/02/02 00:38:43;;;;;;;13.73;2.80;;;;;;;;;;5079761;28;20426;-77
2024/02/02 00:41:09;;;;;;;14.87;3.77;;;;;;;;;;5079479;28;20907;-76
2024/02/02 00:43:35;;;;;;;10.23;4.97;;;;;;;;;;5079266;28;20427;-80
2024/02/02 00:46:01;;;;;;;17.00;3.53;;;;;;;;;;5079205;28;20469;-76
2024/02/02 00:48:27;;;;;;;19.77;5.33;;;;;;;;;;5079332;28;20461;-77
2024/02/02 00:50:53;;;;;;;9.77;2.30;;;;;;;;;;5079160;28;20825;-77
2024/02/02 00:53:19;;;;;;;16.57;4.17;;;;;;;;;;5061169;28;20455;-79
2024/02/02 00:55:45;;;;;;;14.70;4.10;;;;;;;;;;5079277;28;20178;-80
2024/02/02 00:58:11;;;;;;;17.57;5.10;;;;;;;;;;5079435;28;20851;-77
2024/02/02 01:00:37;;;;;;;18.03;3.97;;;;;;;;;;5079182;28;20411;-83
2024/02/02 01:03:03;;;;;;;12.23;3.70;;;;;;;;;;5079525;28;20412;-78
2024/02/02 01:05:30;;;;;;;16.87;3.37;;;;;;;;;;5079204;28;20465;-77
2024/02/02 01:07:56;;;;;;;14.43;4.70;;;;;;;;;;5079324;28;20541;-80
2024/02/02 01:10:22;;;;;;;11.60;2.30;;;;;;;;;;5079246;28;20397;-76
2024/02/02 01:12:48;;;;;;;10.27;2.87;;;;;;;;;;5078888;28;20468;-78
2024/02/02 01:15:14;;;;;;;15.53;2.87;;;;;;;;;;5078771;28;20819;-76
2024/02/02 01:17:41;;;;;;;20.43;3.90;;;;;;;;;;5078581;28;20403;-79
2024/02/02 01:20:07;;;;;;;15.97;3.30;;;;;;;;;;5069967;28;20425;-77
2024/02/02 01:22:33;;;;;;;12.23;3.70;;;;;;;;;;5075984;28;20414;-79
2024/02/02 01:25:00;;;;;;;13.80;3.30;;;;;;;;;;5075873;28;20467;-77
2024/02/02 01:27:25;;;;;;;15.90;3.63;;;;;;;;;;5076065;28;20419;-78
2024/02/02 01:29:51;;;;;;;16.03;4.00;;;;;;;;;;5057707;28;20475;-80
2024/02/02 01:32:17;;;;;;;11.23;2.30;;;;;;;;;;5075837;28;20766;-80
2024/02/02 01:34:43;;;;;;;13.77;3.03;;;;;;;;;;5075683;28;20411;-79
2024/02/02 01:37:09;;;;;;;19.97;3.60;;;;;;;;;;5075733;28;20424;-80
2024/02/02 01:39:35;;;;;;;10.27;2.70;;;;;;;;;;5075668;28;20416;-79
2024/02/02 01:42:01;;;;;;;11.97;3.20;;;;;;;;;;5075600;28;20419;-79
2024/02/02 01:44:27;;;;;;;8.47;2.27;;;;;;;;;;5075013;28;20470;-77
2024/02/02 01:46:53;;;;;;;13.40;4.17;;;;;;;;;;5075586;28;20213;-78
2024/02/02 01:49:19;;;;;;;14.93;4.07;;;;;;;;;;5057960;28;20420;-79
2024/02/02 01:51:45;;;;;;;11.87;3.23;;;;;;;;;;5056855;28;20936;-79
2024/02/02 01:54:11;;;;;;;13.40;2.97;;;;;;;;;;5074135;28;20479;-76
2024/02/02 01:56:36;;;;;;;15.40;3.27;;;;;;;;;;5074850;28;20471;-77
2024/02/02 01:59:03;;;;;;;16.30;3.37;;;;;;;;;;5074431;28;20477;-79
2024/02/02 02:01:29;;;;;;;17.67;4.33;;;;;;;;;;5056718;28;20421;-77
2024/02/02 02:03:55;;;;;;;19.30;3.70;;;;;;;;;;5074705;28;20424;-80
2024/02/02 02:06:21;;;;;;;11.23;2.27;;;;;;;;;;5074824;28;20475;-77
2024/02/02 02:08:50;;;;;;;13.43;2.80;;;;;;;;;;5073633;28;20432;-79
2024/02/02 02:11:16;;;;;;;14.30;3.13;;;;;;;;;;5074091;28;20412;-76
2024/02/02 02:13:44;;;;;;;12.83;2.50;;;;;;;;;;5073149;28;20473;-75
2024/02/02 02:16:10;;;;;;;12.83;2.70;;;;;;;;;;5075025;28;20413;-84
2024/02/02 02:18:36;;;;;;;10.73;3.73;;;;;;;;;;5074617;28;20478;-84
2024/02/02 02:21:03;;;;;;;12.93;3.03;;;;;;;;;;5074538;28;20965;-79
2024/02/02 02:23:35;;;;;;;10.77;2.37;;;;;;;;;;5074896;28;20490;-75
2024/02/02 02:26:02;;;;;;;11.30;2.63;;;;;;;;;;5075252;28;21057;-77
2024/02/02 02:28:27;;;;;;;9.23;2.40;;;;;;;;;;5074939;28;20500;-76
2024/02/02 02:30:53;;;;;;;16.70;3.13;;;;;;;;;;5073800;28;20850;-80
2024/02/02 02:33:19;;;;;;;8.73;2.90;;;;;;;;;;5074852;28;20499;-76
2024/02/02 02:35:45;;;;;;;25.90;4.27;;;;;;;;;;5074693;28;20496;-79
2024/02/02 02:38:11;;;;;;;15.80;3.70;;;;;;;;;;5074482;28;20411;-84
2024/02/02 02:40:37;;;;;;;20.63;3.90;;;;;;;;;;5074270;28;20444;-75
2024/02/02 02:43:06;;;;;;;16.60;3.77;;;;;;;;;;5074602;28;20831;-75
2024/02/02 02:45:32;;;;;;;13.83;4.37;;;;;;;;;;5074030;28;20210;-76
2024/02/02 02:47:57;;;;;;;21.90;5.93;;;;;;;;;;5074489;28;20406;-77
2024/02/02 02:50:23;;;;;;;14.13;5.10;;;;;;;;;;5074335;28;20408;-79
2024/02/02 02:52:49;;;;;;;14.53;5.00;;;;;;;;;;5073069;28;20546;-78
2024/02/02 02:55:15;;;;;;;14.77;4.23;;;;;;;;;;5074134;28;20407;-77
2024/02/02 02:57:41;;;;;;;14.57;5.93;;;;;;;;;;5074257;28;20770;-78
2024/02/02 03:00:09;;;;;;;11.37;4.13;;;;;;;;;;5073842;28;20420;-79
2024/02/02 03:02:35;;;;;;;22.00;6.80;;;;;;;;;;5074101;28;20441;-78
2024/02/02 03:05:01;;;;;;;17.13;5.93;;;;;;;;;;5073920;28;20941;-76
2024/02/02 03:07:26;;;;;;;16.80;4.90;;;;;;;;;;5073853;28;20427;-79
2024/02/02 03:09:52;;;;;;;15.57;4.80;;;;;;;;;;5073950;28;20406;-79
2024/02/02 03:12:18;;;;;;;16.90;5.67;;;;;;;;;;5073993;28;20534;-77
2024/02/02 03:14:44;;;;;;;21.33;5.13;;;;;;;;;;5073521;28;20417;-82
2024/02/02 03:17:10;;;;;;;12.20;4.53;;;;;;;;;;5056247;28;20806;-76
2024/02/02 03:19:36;;;;;;;17.23;5.80;;;;;;;;;;5073686;28;20417;-77
2024/02/02 03:22:02;;;;;;;18.50;5.03;;;;;;;;;;5073703;28;20419;-76
2024/02/02 03:24:28;;;;;;;14.33;5.17;;;;;;;;;;5074076;28;20409;-77
2024/02/02 03:26:54;;;;;;;15.13;4.60;;;;;;;;;;5057239;28;20473;-80
2024/02/02 03:29:20;;;;;;;21.90;5.93;;;;;;;;;;5073471;28;20457;-79
2024/02/02 03:31:45;;;;;;;13.27;4.50;;;;;;;;;;5074079;28;20416;-76
2024/02/02 03:34:11;;;;;;;17.70;6.90;;;;;;;;;;5073783;28;20780;-76
2024/02/02 03:36:37;;;;;;;17.27;4.40;;;;;;;;;;5074615;28;20417;-76
2024/02/02 03:39:03;;;;;;;17.33;5.10;;;;;;;;;;5073635;28;20444;-80
2024/02/02 03:41:29;;;;;;;22.27;6.33;;;;;;;;;;5073913;28;20421;-78
2024/02/02 03:43:56;;;;;;;21.10;5.30;;;;;;;;;;5073559;28;20418;-77
2024/02/02 03:46:25;;;;;;;13.27;4.17;;;;;;;;;;5073546;28;20960;-92
2024/02/02 03:48:52;;;;;;;20.77;5.80;;;;;;;;;;5074120;28;20412;-79
2024/02/02 03:51:17;;;;;;;15.57;4.50;;;;;;;;;;5073693;28;20417;-77
2024/02/02 03:53:43;;;;;;;11.47;3.50;;;;;;;;;;5073556;28;20438;-79
2024/02/02 03:56:10;;;;;;;17.80;5.63;;;;;;;;;;5073474;28;20408;-77
2024/02/02 03:58:36;;;;;;;17.07;5.57;;;;;;;;;;5072879;28;20888;-76
2024/02/02 04:01:06;;;;;;;14.97;5.40;;;;;;;;;;5073362;28;20427;-76
2024/02/02 04:03:32;;;;;;;21.83;4.80;;;;;;;;;;5073025;28;20477;-76
2024/02/02 04:05:59;;;;;;;13.37;4.60;;;;;;;;;;5054984;28;21066;-78
2024/02/02 04:08:25;;;;;;;14.87;4.50;;;;;;;;;;5073183;28;20475;-76
2024/02/02 04:10:51;;;;;;;20.10;6.53;;;;;;;;;;5073001;28;20413;-77
2024/02/02 04:13:17;;;;;;;15.97;4.63;;;;;;;;;;5072651;28;20488;-81
2024/02/02 04:15:44;;;;;;;18.33;5.73;;;;;;;;;;5072847;28;20409;-83
2024/02/02 04:18:10;;;;;;;18.40;5.60;;;;;;;;;;5073058;28;20769;-76
2024/02/02 04:20:36;;;;;;;18.63;7.00;;;;;;;;;;5073059;28;20414;-76
2024/02/02 04:23:02;;;;;;;17.07;6.10;;;;;;;;;;5073169;28;20466;-76
2024/02/02 04:25:28;;;;;;;19.07;7.77;;;;;;;;;;5055011;28;20885;-79
2024/02/02 04:27:54;;;;;;;15.17;6.03;;;;;;;;;;5073258;28;20471;-79
2024/02/02 04:30:19;;;;;;;14.53;5.37;;;;;;;;;;5072604;28;20466;-76
2024/02/02 04:32:46;;;;;;;12.00;6.30;;;;;;;;;;5073202;28;20416;-80
2024/02/02 04:35:11;;;;;;;20.33;7.07;;;;;;;;;;5073063;28;20476;-78
2024/02/02 04:37:39;;;;;;;17.70;6.97;;;;;;;;;;5073139;28;20504;-77
2024/02/02 04:40:06;;;;;;;17.83;8.40;;;;;;;;;;5072750;28;20413;-77
2024/02/02 04:42:32;;;;;;;16.77;6.57;;;;;;;;;;5072674;28;20751;-76
2024/02/02 04:44:57;;;;;;;21.53;7.70;;;;;;;;;;5072441;28;20424;-76
2024/02/02 04:47:23;;;;;;;20.87;7.60;;;;;;;;;;5072815;28;20424;-76
2024/02/02 04:49:49;;;;;;;16.60;7.47;;;;;;;;;;5054785;28;20910;-76
2024/02/02 04:52:15;;;;;;;14.83;6.40;;;;;;;;;;5072959;28;20414;-76
2024/02/02 04:54:41;;;;;;;16.00;9.07;;;;;;;;;;5056584;28;20421;-76
2024/02/02 04:57:07;;;;;;;19.30;8.90;;;;;;;;;;5076315;28;20950;-76
2024/02/02 04:59:33;;;;;;;20.70;8.30;;;;;;;;;;5076015;28;20882;-76
2024/02/02 05:01:59;;;;;;;25.20;9.13;;;;;;;;;;5058959;28;20849;-76
2024/02/02 05:04:25;;;;;;;16.83;9.53;;;;;;;;;;5046401;28;20457;-78
2024/02/02 05:06:51;;;;;;;26.07;9.20;;;;;;;;;;5045213;28;20561;-77
2024/02/02 05:09:17;;;;;;;24.80;10.37;;;;;;;;;;5044733;28;20856;-76
2024/02/02 05:11:43;;;;;;;16.87;9.27;;;;;;;;;;5043126;28;20558;-76
2024/02/02 05:14:09;;;;;;;23.07;9.53;;;;;;;;;;5055196;28;20417;-77
2024/02/02 05:16:35;;;;;;;17.23;9.30;;;;;;;;;;5055529;28;20411;-81
2024/02/02 05:19:01;;;;;;;34.47;10.83;;;;;;;;;;5055415;28;20433;-77
2024/02/02 05:21:27;;;;;;;26.63;12.73;;;;;;;;;;5055391;28;20443;-79
2024/02/02 05:23:53;;;;;;;24.60;11.30;;;;;;;;;;5055257;28;20498;-78
2024/02/02 05:26:19;;;;;;;21.63;10.87;;;;;;;;;;5055338;28;20561;-76
2024/02/02 05:28:45;;;;;;;22.87;10.80;;;;;;;;;;5054898;28;20413;-77
2024/02/02 05:31:11;;;;;;;34.97;13.07;;;;;;;;;;5037337;28;20425;-76
2024/02/02 05:33:37;;;;;;;23.13;10.90;;;;;;;;;;5055535;28;20409;-78
2024/02/02 05:36:03;;;;;;;23.70;12.10;;;;;;;;;;5055086;28;20787;-76
2024/02/02 05:38:29;;;;;;;28.93;13.73;;;;;;;;;;5037228;28;20414;-76
2024/02/02 05:40:55;;;;;;;29.83;13.97;;;;;;;;;;5054951;28;20415;-76
2024/02/02 05:43:20;;;;;;;34.83;14.20;;;;;;;;;;5054705;28;20507;-75
2024/02/02 05:45:46;;;;;;;30.50;16.13;;;;;;;;;;5054851;28;20467;-75
2024/02/02 05:48:12;;;;;;;27.90;14.10;;;;;;;;;;5054848;28;20420;-82
2024/02/02 05:50:38;;;;;;;27.90;12.13;;;;;;;;;;5054679;28;20740;-79
2024/02/02 05:53:04;;;;;;;27.80;13.90;;;;;;;;;;5054810;28;20424;-75
2024/02/02 05:55:40;;;;;;;30.93;14.80;;;;;;;;;;5054570;28;20442;-76
2024/02/02 05:58:05;;;;;;;31.53;14.37;;;;;;;;;;5054289;28;20410;-78
2024/02/02 06:00:31;;;;;;;25.83;12.90;;;;;;;;;;5054955;28;20414;-81
2024/02/02 06:02:57;;;;;;;32.87;14.80;;;;;;;;;;5054739;28;20468;-76
2024/02/02 06:05:23;;;;;;;35.73;14.00;;;;;;;;;;5054044;28;20469;-76
2024/02/02 06:07:49;;;;;;;29.03;14.30;;;;;;;;;;5054573;28;20908;-76
2024/02/02 06:10:15;;;;;;;35.13;13.90;;;;;;;;;;5054580;28;20409;-80
2024/02/02 06:12:41;;;;;;;28.40;13.07;;;;;;;;;;5054404;28;20880;-76
2024/02/02 06:15:07;;;;;;;22.60;12.37;;;;;;;;;;5053863;28;20417;-76
2024/02/02 06:17:34;;;;;;;34.33;14.57;;;;;;;;;;5054225;28;20418;-76
2024/02/02 06:20:00;;;;;;;33.50;13.50;;;;;;;;;;5054158;28;20425;-81
2024/02/02 06:22:25;;;;;;;24.17;12.43;;;;;;;;;;5036363;28;20401;-76
2024/02/02 06:24:51;;;;;;;22.70;10.70;;;;;;;;;;5054132;28;20882;-76
2024/02/02 06:27:22;;;;;;;26.73;14.03;;;;;;;;;;5054181;28;20424;-77
2024/02/02 06:29:48;;;;;;;27.00;14.97;;;;;;;;;;5053861;28;20426;-76
2024/02/02 06:32:14;;;;;;;23.43;11.20;;;;;;;;;;5035972;28;20504;-75
2024/02/02 06:34:39;;;;;;;27.63;13.00;;;;;;;;;;5053903;28;20508;-75
2024/02/02 06:37:05;;;;;;;22.03;11.73;;;;;;;;;;5053887;28;21143;-76
2024/02/02 06:39:34;;;;;;;22.50;11.97;;;;;;;;;;5053840;28;20422;-76
2024/02/02 06:42:00;;;;;;;21.40;10.70;;;;;;;;;;5053758;28;20429;-75
2024/02/02 06:44:26;;;;;;;30.27;13.07;;;;;;;;;;5053402;28;20774;-76
2024/02/02 06:46:52;;;;;;;21.53;12.17;;;;;;;;;;5053645;28;20471;-76
2024/02/02 06:49:18;;;;;;;20.80;12.90;;;;;;;;;;5053585;28;20410;-76
2024/02/02 06:51:44;;;;;;;31.13;12.93;;;;;;;;;;5053623;28;20409;-76
2024/02/02 06:54:09;;;;;;;27.97;13.50;;;;;;;;;;5053493;28;20413;-76
2024/02/02 06:56:46;;;;;;;22.23;11.27;;;;;;;;;;5035635;28;20424;-77
2024/02/02 06:59:12;;;;;;;23.80;12.60;;;;;;;;;;5053249;28;20406;-76
2024/02/02 07:01:38;;;;;;;27.00;12.67;;;;;;;;;;5053727;28;20414;-76
2024/02/02 07:04:14;;;;;;;29.60;13.00;;;;;;;;;;5049395;28;20416;-76
2024/02/02 07:06:41;;;;;;;21.83;12.13;;;;;;;;;;5047184;28;20473;-76
2024/02/02 07:09:29;;;;;;;22.93;12.93;;;;;;;;;;5053115;28;20560;-77
2024/02/02 07:11:58;;;;;;;26.87;12.57;;;;;;;;;;5046443;28;20468;-75
2024/02/02 07:14:43;;;;;;;27.07;12.83;;;;;;;;;;5052699;28;20931;-75
2024/02/02 07:17:14;;;;;;;21.57;10.70;;;;;;;;;;5051506;28;20464;-76
2024/02/02 07:19:41;;;;;;;24.13;11.13;;;;;;;;;;5047122;28;20770;-75
2024/02/02 07:22:29;;;;;;;22.13;12.73;;;;;;;;;;5053044;28;20416;-75
2024/02/02 07:24:55;;;;;;;19.67;11.17;;;;;;;;;;5048831;28;20428;-76
2024/02/02 07:27:32;;;;;;;18.40;11.57;;;;;;;;;;5053031;28;20459;-76
2024/02/02 07:29:57;;;;;;;27.00;13.00;;;;;;;;;;5032194;28;20421;-76
2024/02/02 07:32:24;;;;;;;25.00;12.00;;;;;;;;;;5052908;28;20418;-78
2024/02/02 07:34:51;;;;;;;26.63;13.70;;;;;;;;;;5053105;28;20910;-77
2024/02/02 07:37:44;;;;;;;24.67;11.70;;;;;;;;;;5052965;28;20419;-77
2024/02/02 07:40:39;;;;;;;21.73;12.07;;;;;;;;;;5034400;28;20428;-76
2024/02/02 07:43:05;;;;;;;23.97;13.20;;;;;;;;;;5032249;28;20437;-80
2024/02/02 07:45:31;;;;;;;27.90;12.10;;;;;;;;;;5045661;28;20458;-81
2024/02/02 07:47:58;;;;;;;24.37;11.87;;;;;;;;;;5052970;28;20419;-83
2024/02/02 07:50:24;;;;;;;28.00;15.27;;;;;;;;;;5052704;28;20420;-78
2024/02/02 07:52:50;;;;;;;19.33;12.33;;;;;;;;;;5034847;28;20450;-89
2024/02/02 07:55:16;;;;;;;26.93;11.83;;;;;;;;;;5053584;28;20777;-80
2024/02/02 07:57:42;;;;;;;21.90;12.70;;;;;;;;;;5052519;28;20420;-77
2024/02/02 08:00:09;;;;;;;25.33;12.70;;;;;;;;;;5052107;28;20449;-76
2024/02/02 08:02:35;;;;;;;27.37;12.50;;;;;;;;;;5053515;28;20449;-80
2024/02/02 08:05:07;;;;;;;27.17;11.93;;;;;;;;;;5053475;28;20799;-76
2024/02/02 08:07:33;;;;;;;25.73;12.73;;;;;;;;;;5034916;28;20426;-78
2024/02/02 08:09:59;;;;;;;24.90;11.87;;;;;;;;;;5052759;28;20473;-78
2024/02/02 08:12:25;;;;;;;22.67;12.07;;;;;;;;;;5049656;28;20820;-76
2024/02/02 08:14:51;;;;;;;25.33;13.88;;;;;;;;;;5047343;28;20836;-75
2024/02/02 08:17:20;;;;;;;20.33;11.73;;;;;;;;;;5046741;28;20207;-76
2024/02/02 08:19:46;;;;;;;21.67;13.30;;;;;;;;;;5047301;28;20906;-78
2024/02/02 08:22:12;;;;;;;25.67;13.33;;;;;;;;;;5045469;28;20420;-80
2024/02/02 08:24:38;;;;;;;29.60;12.90;;;;;;;;;;5046251;28;20413;-77
2024/02/02 08:27:04;;;;;;;26.57;11.50;;;;;;;;;;5046542;28;20516;-81
2024/02/02 08:29:30;;;;;;;19.70;12.47;;;;;;;;;;5047911;28;20762;-78
2024/02/02 08:31:59;;;;;;;28.35;15.13;;;;;;;;;;5045398;28;20420;-76
2024/02/02 08:34:29;;;;;;;24.73;14.33;;;;;;;;;;5048440;28;20691;-76
2024/02/02 08:36:55;;;;;;;25.67;13.00;;;;;;;;;;5051760;28;20409;-77
2024/02/02 08:39:21;;;;;;;22.70;14.07;;;;;;;;;;5048861;28;20498;-78
2024/02/02 08:41:47;;;;;;;20.77;12.50;;;;;;;;;;5045505;28;20765;-76
2024/02/02 08:44:24;;;;;;;21.70;12.80;;;;;;;;;;5051777;28;20416;-79
2024/02/02 08:46:50;;;;;;;21.07;11.97;;;;;;;;;;5052305;28;21054;-76
2024/02/02 08:49:36;;;;;;;25.00;14.27;;;;;;;;;;5047100;28;20921;-79
2024/02/02 08:52:02;;;;;;;29.07;13.93;;;;;;;;;;5050098;28;20909;-80
2024/02/02 08:54:34;;;;;;;30.90;12.97;;;;;;;;;;5056151;28;20413;-76
2024/02/02 08:57:12;;;;;;;23.97;12.10;;;;;;;;;;5049800;28;20407;-75
2024/02/02 08:59:43;;;;;;;27.63;12.93;;;;;;;;;;5049398;28;20417;-81
2024/02/02 09:02:19;;;;;;;33.93;14.67;;;;;;;;;;5049581;28;20402;-76
2024/02/02 09:05:00;;;;;;;25.33;13.80;;;;;;;;;;5031171;28;20496;-76
2024/02/02 09:07:26;;;;;;;23.13;11.27;;;;;;;;;;5051545;28;20845;-77
2024/02/02 09:09:52;;;;;;;29.07;16.00;;;;;;;;;;5049276;28;20406;-77
2024/02/02 09:12:18;;;;;;;20.07;12.73;;;;;;;;;;5058542;28;20519;-81
2024/02/02 09:14:44;;;;;;;20.77;11.67;;;;;;;;;;5065546;28;20520;-77
2024/02/02 09:17:11;;;;;;;22.43;12.40;;;;;;;;;;5064715;28;20409;-77
2024/02/02 09:19:41;;;;;;;29.70;14.00;;;;;;;;;;5062165;28;20501;-76
2024/02/02 09:22:11;;;;;;;18.73;12.87;;;;;;;;;;5064932;28;20413;-77
2024/02/02 09:24:37;;;;;;;24.37;14.30;;;;;;;;;;5062453;28;20418;-86
2024/02/02 09:27:03;;;;;;;24.10;12.80;;;;;;;;;;5065325;28;20510;-77
2024/02/02 09:29:30;;;;;;;21.27;12.37;;;;;;;;;;5063376;28;20573;-77
2024/02/02 09:31:56;;;;;;;30.20;13.80;;;;;;;;;;5050231;28;20918;-76
2024/02/02 09:34:24;;;;;;;27.17;13.80;;;;;;;;;;5058065;28;20413;-76
2024/02/02 09:36:51;;;;;;;29.53;14.47;;;;;;;;;;5062828;28;20431;-76
2024/02/02 09:39:38;;;;;;;21.33;12.07;;;;;;;;;;5057594;28;20932;-77
2024/02/02 09:42:22;;;;;;;26.77;14.03;;;;;;;;;;5058044;28;20417;-76
2024/02/02 09:44:50;;;;;;;27.57;13.67;;;;;;;;;;5059111;28;20491;-77
2024/02/02 09:47:22;;;;;;;28.53;12.83;;;;;;;;;;5057959;28;20418;-76
2024/02/02 09:49:59;;;;;;;29.70;13.77;;;;;;;;;;5065881;28;20433;-76
2024/02/02 09:52:44;;;;;;;30.30;13.40;;;;;;;;;;5063740;28;20820;-76
2024/02/02 09:55:17;;;;;;;29.50;15.90;;;;;;;;;;5064958;28;20767;-76
2024/02/02 09:57:55;;;;;;;26.03;13.20;;;;;;;;;;5063037;28;20424;-76
2024/02/02 10:00:30;;;;;;;25.03;15.90;;;;;;;;;;5062419;28;20413;-76
2024/02/02 10:03:14;;;;;;;33.20;15.53;;;;;;;;;;5054766;28;20424;-76
2024/02/02 10:05:51;;;;;;;25.63;14.80;;;;;;;;;;5062250;28;20850;-76
2024/02/02 10:08:17;;;;;;;26.13;15.47;;;;;;;;;;5061328;28;20409;-76
2024/02/02 10:11:01;;;;;;;30.93;15.40;;;;;;;;;;5065039;28;20422;-77
2024/02/02 10:13:46;;;;;;;24.33;14.70;;;;;;;;;;5055589;28;20229;-82
2024/02/02 10:16:35;;;;;;;25.23;13.80;;;;;;;;;;5073019;28;20420;-78
2024/02/02 10:19:18;;;;;;;26.10;14.40;;;;;;;;;;5074064;28;20428;-81
2024/02/02 10:22:03;;;;;;;24.87;14.77;;;;;;;;;;5054602;28;20469;-77
2024/02/02 10:24:50;;;;;;;22.97;14.20;;;;;;;;;;5073371;28;20419;-83
2024/02/02 10:27:25;;;;;;;28.70;16.23;;;;;;;;;;5071393;28;20847;-77
2024/02/02 10:30:05;;;;;;;29.10;16.80;;;;;;;;;;5073902;28;20414;-77
2024/02/02 10:32:31;;;;;;;32.50;16.70;;;;;;;;;;5074243;28;20457;-77
2024/02/02 10:35:19;;;;;;;33.07;15.73;;;;;;;;;;5073877;28;20414;-78
2024/02/02 10:37:49;;;;;;;26.00;14.97;;;;;;;;;;5072320;28;20408;-77
2024/02/02 10:40:40;;;;;;;29.63;17.90;;;;;;;;;;5073623;28;20479;-77
2024/02/02 10:43:19;;;;;;;24.27;15.93;;;;;;;;;;5072076;28;20413;-77
2024/02/02 10:45:59;;;;;;;30.87;16.30;;;;;;;;;;5072307;28;20475;-77
2024/02/02 10:48:38;;;;;;;25.80;14.40;;;;;;;;;;5072231;28;20468;-77
2024/02/02 10:51:15;;;;;;;25.33;15.80;;;;;;;;;;5069589;28;20427;-77
2024/02/02 10:54:00;;;;;;;26.37;16.33;;;;;;;;;;5071047;28;20425;-83
2024/02/02 10:56:44;;;;;;;23.83;14.63;;;;;;;;;;5070505;28;20413;-77
2024/02/02 10:59:27;;;;;;;32.33;14.53;;;;;;;;;;5072142;28;20414;-77
2024/02/02 11:01:52;;;;;;;28.67;15.17;;;;;;;;;;5072656;28;20401;-81
2024/02/02 11:04:24;;;;;;;21.90;14.80;;;;;;;;;;5073248;28;20409;-81
2024/02/02 11:06:57;;;;;;;23.33;14.57;;;;;;;;;;5073178;28;20695;-78
2024/02/02 11:09:31;;;;;;;23.83;14.27;;;;;;;;;;5071596;28;20771;-78
2024/02/02 11:12:06;;;;;;;30.13;13.80;;;;;;;;;;5073022;28;20873;-76
2024/02/02 11:14:47;;;;;;;26.90;15.07;;;;;;;;;;5072727;28;20414;-78
2024/02/02 11:17:24;;;;;;;22.50;15.00;;;;;;;;;;5073031;28;20455;-76
2024/02/02 11:20:09;;;;;;;26.93;14.40;;;;;;;;;;5073348;28;20451;-83
2024/02/02 11:23:01;;;;;;;27.50;13.20;;;;;;;;;;5072868;28;20414;-76
2024/02/02 11:25:35;;;;;;;31.00;16.40;;;;;;;;;;5069092;28;20901;-77
2024/02/02 11:28:05;;;;;;;26.13;13.00;;;;;;;;;;5068052;28;20414;-79
2024/02/02 11:30:36;;;;;;;35.13;12.87;;;;;;;;;;5072988;28;20416;-79
2024/02/02 11:33:10;;;;;;;30.97;12.57;;;;;;;;;;5072832;28;20420;-77
2024/02/02 11:35:47;;;;;;;21.03;11.27;;;;;;;;;;5070435;28;20495;-77
2024/02/02 11:38:32;;;;;;;24.90;12.87;;;;;;;;;;5068626;28;20413;-77
2024/02/02 11:40:58;;;;;;;25.73;11.90;;;;;;;;;;5070174;28;20497;-78
2024/02/02 11:43:26;;;;;;;29.77;14.43;;;;;;;;;;5054699;28;20417;-75
2024/02/02 11:45:53;;;;;;;23.17;11.53;;;;;;;;;;5072820;28;20473;-76
2024/02/02 11:48:18;;;;;;;34.83;14.13;;;;;;;;;;5073322;28;20782;-83
2024/02/02 11:50:45;;;;;;;23.33;11.57;;;;;;;;;;5073910;28;20473;-79
2024/02/02 11:53:31;;;;;;;31.07;12.20;;;;;;;;;;5074236;28;20409;-79
2024/02/02 11:56:01;;;;;;;29.03;12.67;;;;;;;;;;5062304;28;20413;-78
2024/02/02 11:58:28;;;;;;;18.67;12.23;;;;;;;;;;5074266;28;20890;-78
2024/02/02 12:01:13;;;;;;;20.37;12.23;;;;;;;;;;5074604;28;20436;-81
2024/02/02 12:03:39;;;;;;;29.40;11.80;;;;;;;;;;5072368;28;20908;-81
2024/02/02 12:06:11;;;;;;;17.40;11.30;;;;;;;;;;5054475;28;20462;-80
2024/02/02 12:08:59;;;;;;;23.43;12.63;;;;;;;;;;5074751;28;20839;-82
2024/02/02 12:11:32;;;;;;;32.47;12.77;;;;;;;;;;5029712;28;20521;-81
2024/02/02 12:13:58;;;;;;;21.70;13.20;;;;;;;;;;5073125;28;20422;-88
2024/02/02 12:16:25;;;;;;;25.60;13.00;;;;;;;;;;5074166;28;20911;-79
2024/02/02 12:18:51;;;;;;;27.20;13.77;;;;;;;;;;5074227;28;20444;-90
2024/02/02 12:21:17;;;;;;;25.20;12.97;;;;;;;;;;5074143;28;20400;-81
2024/02/02 12:23:46;;;;;;;23.27;11.60;;;;;;;;;;5072880;28;20413;-76
2024/02/02 12:26:12;;;;;;;36.27;14.40;;;;;;;;;;5072208;28;20473;-76
2024/02/02 12:28:39;;;;;;;23.80;12.90;;;;;;;;;;5071391;28;20415;-76
2024/02/02 12:31:04;;;;;;;29.13;12.40;;;;;;;;;;5072301;28;20472;-77
2024/02/02 12:33:30;;;;;;;28.13;10.53;;;;;;;;;;5065525;28;20782;-77
2024/02/02 12:35:58;;;;;;;24.13;12.67;;;;;;;;;;5065729;28;20421;-77
2024/02/02 12:38:24;;;;;;;27.20;10.83;;;;;;;;;;5071969;28;20486;-77
2024/02/02 12:40:51;;;;;;;30.60;11.93;;;;;;;;;;5071849;28;20426;-76
2024/02/02 12:43:24;;;;;;;25.30;11.67;;;;;;;;;;5071733;28;20492;-77
2024/02/02 12:45:50;;;;;;;19.63;13.03;;;;;;;;;;5071921;28;20514;-76
2024/02/02 12:48:16;;;;;;;24.97;12.47;;;;;;;;;;5074585;28;20911;-74
2024/02/02 12:50:43;;;;;;;23.20;11.37;;;;;;;;;;5055993;28;20412;-75
2024/02/02 12:53:10;;;;;;;29.83;11.20;;;;;;;;;;5072431;28;20418;-78
2024/02/02 12:55:36;;;;;;;36.73;13.03;;;;;;;;;;5072300;28;20420;-83
2024/02/02 12:58:02;;;;;;;22.50;11.27;;;;;;;;;;5071757;28;20414;-76
2024/02/02 13:00:28;;;;;;;21.33;10.77;;;;;;;;;;5071422;28;20735;-78
2024/02/02 13:02:54;;;;;;;24.70;11.53;;;;;;;;;;5071718;28;20413;-82
2024/02/02 13:05:22;;;;;;;27.63;11.70;;;;;;;;;;5071810;28;20473;-76
2024/02/02 13:07:50;;;;;;;24.17;10.80;;;;;;;;;;5053627;28;20756;-84
2024/02/02 13:10:34;;;;;;;25.63;10.60;;;;;;;;;;5071759;28;20418;-77
2024/02/02 13:13:09;;;;;;;30.13;10.40;;;;;;;;;;5062609;28;20947;-78
2024/02/02 13:15:35;;;;;;;31.90;11.43;;;;;;;;;;5061359;28;20493;-79
2024/02/02 13:18:05;;;;;;;26.43;11.40;;;;;;;;;;5064743;28;20452;-77
2024/02/02 13:20:35;;;;;;;27.40;11.00;;;;;;;;;;5063032;28;20817;-76
2024/02/02 13:23:10;;;;;;;24.70;10.80;;;;;;;;;;5064673;28;20422;-77
2024/02/02 13:25:36;;;;;;;23.37;12.20;;;;;;;;;;5041237;28;20465;-75
2024/02/02 13:28:02;;;;;;;25.70;10.13;;;;;;;;;;5065536;28;20426;-82
2024/02/02 13:30:32;;;;;;;24.00;10.23;;;;;;;;;;5066203;28;20410;-77
2024/02/02 13:33:03;;;;;;;23.87;9.63;;;;;;;;;;5047574;28;20426;-76
2024/02/02 13:35:31;;;;;;;20.97;9.47;;;;;;;;;;5035886;28;20468;-77
2024/02/02 13:38:02;;;;;;;23.07;10.63;;;;;;;;;;5032098;28;20420;-77
2024/02/02 13:40:29;;;;;;;23.23;9.60;;;;;;;;;;5035688;28;20397;-76
2024/02/02 13:42:57;;;;;;;33.40;11.30;;;;;;;;;;5035113;28;20457;-77
2024/02/02 13:45:24;;;;;;;24.33;10.53;;;;;;;;;;5038754;28;20482;-77
2024/02/02 13:47:59;;;;;;;24.83;10.27;;;;;;;;;;5073621;28;20932;-79
2024/02/02 13:50:40;;;;;;;24.60;10.00;;;;;;;;;;5075230;28;20497;-76
2024/02/02 13:53:09;;;;;;;22.37;11.70;;;;;;;;;;5075297;28;20409;-76
2024/02/02 13:55:35;;;;;;;24.20;9.40;;;;;;;;;;5075218;28;20860;-78
2024/02/02 13:58:01;;;;;;;20.20;8.70;;;;;;;;;;5056913;28;20418;-76
2024/02/02 14:00:30;;;;;;;26.37;9.67;;;;;;;;;;5076941;28;20413;-76
2024/02/02 14:03:09;;;;;;;22.00;8.47;;;;;;;;;;5057548;28;20528;-77
2024/02/02 14:05:36;;;;;;;16.60;8.30;;;;;;;;;;5056527;28;20796;-77
2024/02/02 14:08:02;;;;;;;17.97;8.43;;;;;;;;;;5036862;28;20522;-77
2024/02/02 14:10:29;;;;;;;19.93;8.40;;;;;;;;;;5062960;28;20418;-77
2024/02/02 14:12:56;;;;;;;20.43;9.40;;;;;;;;;;5042472;28;20817;-76
2024/02/02 14:15:22;;;;;;;23.60;8.07;;;;;;;;;;5074879;28;20456;-75
2024/02/02 14:17:48;;;;;;;24.60;10.90;;;;;;;;;;5074940;28;20411;-78
2024/02/02 14:20:14;;;;;;;21.67;9.00;;;;;;;;;;5068040;28;21039;-79
2024/02/02 14:22:42;;;;;;;23.20;9.93;;;;;;;;;;5062029;28;20923;-76
2024/02/02 14:25:08;;;;;;;23.30;8.83;;;;;;;;;;5054898;28;20414;-75
2024/02/02 14:27:39;;;;;;;20.80;9.10;;;;;;;;;;5054515;28;20462;-77
2024/02/02 14:30:08;;;;;;;17.43;8.50;;;;;;;;;;5071331;28;20411;-76
2024/02/02 14:32:37;;;;;;;14.90;8.03;;;;;;;;;;5055605;28;20415;-77
2024/02/02 14:35:03;;;;;;;24.37;9.13;;;;;;;;;;5074735;28;20418;-81